首页
METAR-TAF:

METAR-TAF

机场 :

新山一國際機場

胡志明, 越南

纬度: 10-49N, 经度: 106-40E, 海拔: 19米

当前天气观测

该预报发布于21分钟前的03:00 UTC
风速6节,风向,在东北东南之间变化
温度 33°C
湿度 39%
气压 1016 hPa
能見度: 8000

METAR: VVTS 210300Z 10006KT 050V130 8000 NSC 33/17 Q1016 NOSIG

时间: 10:21 (03:21 UTC)

预报

该预报发布于4小时和21分钟前的23:00 UTC
预报有效从21日的 00点(UTC)到 22日的 06点(UTC)
风速10节,风向东转东南
能见度10公里或以上
少量云层高于1700英尺

TAF: VVTS 202300Z 2100/2206 12010KT 9999 FEW017

超过4000个机场的气象观测和天气预报(METAR&TAF报告)。

可查询的气象台以黄色和红色小点在地图上表示。

将鼠标移到小点上方,可查看气象台名称。

然后点击查看天气观测和预报。

如需切换地图:点击带黑十字的绿色按钮放大地图;点击带横线的绿色按钮缩小地图;或者点击绿色箭头查看邻近地区的地图。


METAR-TAF: